sensor_id;sensor_type;location;lat;lon;timestamp;P1;durP1;ratioP1;P2;durP2;ratioP2
2944;SDS011;1482;51.398;7.128;2023-08-07T00:01:51;2.90;;;2.43;;
2944;SDS011;1482;51.398;7.128;2023-08-07T00:04:16;4.37;;;1.97;;
2944;SDS011;1482;51.398;7.128;2023-08-07T00:06:42;4.10;;;2.47;;
2944;SDS011;1482;51.398;7.128;2023-08-07T00:09:08;5.23;;;2.97;;
2944;SDS011;1482;51.398;7.128;2023-08-07T00:11:33;3.67;;;2.10;;
2944;SDS011;1482;51.398;7.128;2023-08-07T00:13:59;2.17;;;1.80;;
2944;SDS011;1482;51.398;7.128;2023-08-07T00:16:25;5.73;;;2.13;;
2944;SDS011;1482;51.398;7.128;2023-08-07T00:18:51;2.40;;;2.20;;
2944;SDS011;1482;51.398;7.128;2023-08-07T00:21:20;4.33;;;2.37;;
2944;SDS011;1482;51.398;7.128;2023-08-07T00:23:46;7.73;;;2.53;;
2944;SDS011;1482;51.398;7.128;2023-08-07T00:26:12;6.93;;;2.80;;
2944;SDS011;1482;51.398;7.128;2023-08-07T00:28:37;4.67;;;3.50;;
2944;SDS011;1482;51.398;7.128;2023-08-07T00:31:03;3.40;;;3.00;;
2944;SDS011;1482;51.398;7.128;2023-08-07T00:33:28;7.20;;;3.60;;
2944;SDS011;1482;51.398;7.128;2023-08-07T00:35:54;9.50;;;5.20;;
2944;SDS011;1482;51.398;7.128;2023-08-07T00:38:19;7.83;;;5.13;;
2944;SDS011;1482;51.398;7.128;2023-08-07T00:40:45;8.40;;;5.10;;
2944;SDS011;1482;51.398;7.128;2023-08-07T00:43:10;7.60;;;5.30;;
2944;SDS011;1482;51.398;7.128;2023-08-07T00:45:38;8.90;;;5.80;;
2944;SDS011;1482;51.398;7.128;2023-08-07T00:48:10;9.83;;;4.90;;
2944;SDS011;1482;51.398;7.128;2023-08-07T00:50:37;8.80;;;4.90;;
2944;SDS011;1482;51.398;7.128;2023-08-07T00:53:03;11.00;;;5.17;;
2944;SDS011;1482;51.398;7.128;2023-08-07T00:55:29;8.47;;;4.70;;
2944;SDS011;1482;51.398;7.128;2023-08-07T00:57:55;8.43;;;4.97;;
2944;SDS011;1482;51.398;7.128;2023-08-07T01:00:22;5.50;;;4.60;;
2944;SDS011;1482;51.398;7.128;2023-08-07T01:02:48;5.10;;;4.40;;
2944;SDS011;1482;51.398;7.128;2023-08-07T01:05:16;10.30;;;5.13;;
2944;SDS011;1482;51.398;7.128;2023-08-07T01:07:43;5.60;;;4.70;;
2944;SDS011;1482;51.398;7.128;2023-08-07T01:10:09;6.97;;;4.93;;
2944;SDS011;1482;51.398;7.128;2023-08-07T01:12:36;7.27;;;4.70;;
2944;SDS011;1482;51.398;7.128;2023-08-07T01:15:22;9.03;;;4.90;;
2944;SDS011;1482;51.398;7.128;2023-08-07T01:17:54;5.80;;;4.70;;
2944;SDS011;1482;51.398;7.128;2023-08-07T01:20:20;9.03;;;5.17;;
2944;SDS011;1482;51.398;7.128;2023-08-07T01:22:46;8.40;;;4.80;;
2944;SDS011;1482;51.398;7.128;2023-08-07T01:25:11;5.47;;;4.27;;
2944;SDS011;1482;51.398;7.128;2023-08-07T01:27:42;5.23;;;4.73;;
2944;SDS011;1482;51.398;7.128;2023-08-07T01:35:44;7.57;;;5.20;;
2944;SDS011;1482;51.398;7.128;2023-08-07T01:38:14;7.13;;;4.77;;
2944;SDS011;1482;51.398;7.128;2023-08-07T01:40:41;5.03;;;3.40;;
2944;SDS011;1482;51.398;7.128;2023-08-07T01:43:08;8.87;;;3.67;;
2944;SDS011;1482;51.398;7.128;2023-08-07T01:45:33;7.97;;;2.93;;
2944;SDS011;1482;51.398;7.128;2023-08-07T01:47:59;8.70;;;3.23;;
2944;SDS011;1482;51.398;7.128;2023-08-07T01:50:25;7.43;;;3.00;;
2944;SDS011;1482;51.398;7.128;2023-08-07T01:52:51;7.20;;;2.57;;
2944;SDS011;1482;51.398;7.128;2023-08-07T01:55:17;9.67;;;3.53;;
2944;SDS011;1482;51.398;7.128;2023-08-07T01:57:44;5.17;;;2.00;;
2944;SDS011;1482;51.398;7.128;2023-08-07T02:00:13;8.57;;;3.50;;
2944;SDS011;1482;51.398;7.128;2023-08-07T02:02:39;5.43;;;2.37;;
2944;SDS011;1482;51.398;7.128;2023-08-07T02:05:04;3.37;;;2.60;;
2944;SDS011;1482;51.398;7.128;2023-08-07T02:07:30;5.07;;;2.20;;
2944;SDS011;1482;51.398;7.128;2023-08-07T02:09:56;5.17;;;2.20;;
2944;SDS011;1482;51.398;7.128;2023-08-07T02:12:22;4.00;;;2.83;;
2944;SDS011;1482;51.398;7.128;2023-08-07T02:14:49;6.80;;;2.30;;
2944;SDS011;1482;51.398;7.128;2023-08-07T02:17:15;5.90;;;2.13;;
2944;SDS011;1482;51.398;7.128;2023-08-07T02:19:40;1.73;;;1.50;;
2944;SDS011;1482;51.398;7.128;2023-08-07T02:22:06;4.90;;;2.00;;
2944;SDS011;1482;51.398;7.128;2023-08-07T02:24:31;3.07;;;1.50;;
2944;SDS011;1482;51.398;7.128;2023-08-07T02:26:57;5.33;;;1.90;;
2944;SDS011;1482;51.398;7.128;2023-08-07T02:29:23;3.07;;;1.57;;
2944;SDS011;1482;51.398;7.128;2023-08-07T02:31:48;4.13;;;1.83;;
2944;SDS011;1482;51.398;7.128;2023-08-07T02:34:14;4.03;;;1.87;;
2944;SDS011;1482;51.398;7.128;2023-08-07T02:36:39;1.97;;;1.40;;
2944;SDS011;1482;51.398;7.128;2023-08-07T02:39:05;3.57;;;1.93;;
2944;SDS011;1482;51.398;7.128;2023-08-07T02:41:31;3.87;;;1.77;;
2944;SDS011;1482;51.398;7.128;2023-08-07T02:43:57;2.33;;;1.50;;
2944;SDS011;1482;51.398;7.128;2023-08-07T02:46:23;8.80;;;2.30;;
2944;SDS011;1482;51.398;7.128;2023-08-07T02:48:48;3.40;;;2.43;;
2944;SDS011;1482;51.398;7.128;2023-08-07T02:51:14;5.93;;;2.40;;
2944;SDS011;1482;51.398;7.128;2023-08-07T02:53:39;3.07;;;2.53;;
2944;SDS011;1482;51.398;7.128;2023-08-07T02:56:05;4.17;;;3.77;;
2944;SDS011;1482;51.398;7.128;2023-08-07T02:58:31;5.33;;;4.83;;
2944;SDS011;1482;51.398;7.128;2023-08-07T03:00:56;8.53;;;6.27;;
2944;SDS011;1482;51.398;7.128;2023-08-07T03:03:27;9.60;;;6.10;;
2944;SDS011;1482;51.398;7.128;2023-08-07T03:05:53;7.27;;;6.67;;
2944;SDS011;1482;51.398;7.128;2023-08-07T03:08:18;9.67;;;7.20;;
2944;SDS011;1482;51.398;7.128;2023-08-07T03:10:53;8.23;;;5.80;;
2944;SDS011;1482;51.398;7.128;2023-08-07T03:13:23;7.87;;;5.70;;
2944;SDS011;1482;51.398;7.128;2023-08-07T03:15:49;6.23;;;4.93;;
2944;SDS011;1482;51.398;7.128;2023-08-07T03:18:18;11.30;;;5.80;;
2944;SDS011;1482;51.398;7.128;2023-08-07T03:20:44;7.53;;;5.43;;
2944;SDS011;1482;51.398;7.128;2023-08-07T03:23:10;9.83;;;4.10;;
2944;SDS011;1482;51.398;7.128;2023-08-07T03:25:36;3.77;;;3.47;;
2944;SDS011;1482;51.398;7.128;2023-08-07T03:28:01;5.00;;;4.60;;
2944;SDS011;1482;51.398;7.128;2023-08-07T03:30:28;8.47;;;4.23;;
2944;SDS011;1482;51.398;7.128;2023-08-07T03:32:53;6.03;;;4.60;;
2944;SDS011;1482;51.398;7.128;2023-08-07T03:35:19;4.90;;;4.40;;
2944;SDS011;1482;51.398;7.128;2023-08-07T03:37:44;6.57;;;4.97;;
2944;SDS011;1482;51.398;7.128;2023-08-07T03:40:10;9.67;;;5.30;;
2944;SDS011;1482;51.398;7.128;2023-08-07T03:42:36;8.80;;;5.80;;
2944;SDS011;1482;51.398;7.128;2023-08-07T03:45:01;13.90;;;6.57;;
2944;SDS011;1482;51.398;7.128;2023-08-07T03:47:27;11.73;;;6.10;;
2944;SDS011;1482;51.398;7.128;2023-08-07T03:49:52;15.97;;;6.47;;
2944;SDS011;1482;51.398;7.128;2023-08-07T03:52:18;16.60;;;5.90;;
2944;SDS011;1482;51.398;7.128;2023-08-07T03:54:43;11.20;;;4.70;;
2944;SDS011;1482;51.398;7.128;2023-08-07T03:57:09;10.10;;;5.20;;
2944;SDS011;1482;51.398;7.128;2023-08-07T03:59:35;12.70;;;4.90;;
2944;SDS011;1482;51.398;7.128;2023-08-07T04:02:01;9.13;;;5.03;;
2944;SDS011;1482;51.398;7.128;2023-08-07T04:04:27;14.40;;;5.20;;
2944;SDS011;1482;51.398;7.128;2023-08-07T04:06:53;15.80;;;5.40;;
2944;SDS011;1482;51.398;7.128;2023-08-07T04:09:18;16.10;;;5.93;;
2944;SDS011;1482;51.398;7.128;2023-08-07T04:11:44;9.73;;;4.63;;
2944;SDS011;1482;51.398;7.128;2023-08-07T04:14:09;8.57;;;4.13;;
2944;SDS011;1482;51.398;7.128;2023-08-07T04:16:36;9.73;;;5.00;;
2944;SDS011;1482;51.398;7.128;2023-08-07T04:19:02;9.80;;;4.73;;
2944;SDS011;1482;51.398;7.128;2023-08-07T04:21:28;16.43;;;5.80;;
2944;SDS011;1482;51.398;7.128;2023-08-07T04:23:54;15.10;;;6.70;;
2944;SDS011;1482;51.398;7.128;2023-08-07T04:26:20;14.47;;;5.43;;
2944;SDS011;1482;51.398;7.128;2023-08-07T04:28:46;14.97;;;5.30;;
2944;SDS011;1482;51.398;7.128;2023-08-07T04:31:11;12.37;;;5.10;;
2944;SDS011;1482;51.398;7.128;2023-08-07T04:33:37;10.00;;;5.07;;
2944;SDS011;1482;51.398;7.128;2023-08-07T04:36:03;20.60;;;6.00;;
2944;SDS011;1482;51.398;7.128;2023-08-07T04:38:29;10.20;;;5.80;;
2944;SDS011;1482;51.398;7.128;2023-08-07T04:40:55;10.47;;;5.93;;
2944;SDS011;1482;51.398;7.128;2023-08-07T04:43:20;12.57;;;5.37;;
2944;SDS011;1482;51.398;7.128;2023-08-07T04:45:46;17.07;;;5.60;;
2944;SDS011;1482;51.398;7.128;2023-08-07T04:48:11;14.10;;;4.70;;
2944;SDS011;1482;51.398;7.128;2023-08-07T04:50:37;23.30;;;5.03;;
2944;SDS011;1482;51.398;7.128;2023-08-07T04:53:06;6.80;;;4.80;;
2944;SDS011;1482;51.398;7.128;2023-08-07T04:55:32;21.33;;;6.30;;
2944;SDS011;1482;51.398;7.128;2023-08-07T04:57:57;15.67;;;6.03;;
2944;SDS011;1482;51.398;7.128;2023-08-07T05:00:23;15.90;;;4.70;;
2944;SDS011;1482;51.398;7.128;2023-08-07T05:02:49;12.80;;;4.50;;
2944;SDS011;1482;51.398;7.128;2023-08-07T05:05:15;12.43;;;4.10;;
2944;SDS011;1482;51.398;7.128;2023-08-07T05:07:41;12.47;;;4.00;;
2944;SDS011;1482;51.398;7.128;2023-08-07T05:10:08;13.60;;;4.17;;
2944;SDS011;1482;51.398;7.128;2023-08-07T05:12:34;19.70;;;4.67;;
2944;SDS011;1482;51.398;7.128;2023-08-07T05:15:00;11.30;;;5.27;;
2944;SDS011;1482;51.398;7.128;2023-08-07T05:17:25;7.13;;;3.60;;
2944;SDS011;1482;51.398;7.128;2023-08-07T05:19:51;5.90;;;4.00;;
2944;SDS011;1482;51.398;7.128;2023-08-07T05:22:16;9.53;;;3.50;;
2944;SDS011;1482;51.398;7.128;2023-08-07T05:24:42;14.90;;;4.50;;
2944;SDS011;1482;51.398;7.128;2023-08-07T05:27:08;9.03;;;4.20;;
2944;SDS011;1482;51.398;7.128;2023-08-07T05:29:34;10.40;;;6.03;;
2944;SDS011;1482;51.398;7.128;2023-08-07T05:32:08;20.40;;;5.00;;
2944;SDS011;1482;51.398;7.128;2023-08-07T05:34:34;6.13;;;5.03;;
2944;SDS011;1482;51.398;7.128;2023-08-07T05:36:59;14.10;;;5.50;;
2944;SDS011;1482;51.398;7.128;2023-08-07T05:39:25;9.90;;;5.00;;
2944;SDS011;1482;51.398;7.128;2023-08-07T05:41:50;10.50;;;5.97;;
2944;SDS011;1482;51.398;7.128;2023-08-07T05:44:18;10.43;;;6.23;;
2944;SDS011;1482;51.398;7.128;2023-08-07T05:46:44;5.83;;;4.43;;
2944;SDS011;1482;51.398;7.128;2023-08-07T05:49:09;7.63;;;4.57;;
2944;SDS011;1482;51.398;7.128;2023-08-07T05:51:35;8.43;;;5.77;;
2944;SDS011;1482;51.398;7.128;2023-08-07T05:54:00;9.60;;;6.37;;
2944;SDS011;1482;51.398;7.128;2023-08-07T05:56:26;11.40;;;5.20;;
2944;SDS011;1482;51.398;7.128;2023-08-07T05:58:51;8.03;;;4.67;;
2944;SDS011;1482;51.398;7.128;2023-08-07T06:01:17;8.07;;;5.33;;
2944;SDS011;1482;51.398;7.128;2023-08-07T06:03:43;7.60;;;4.80;;
2944;SDS011;1482;51.398;7.128;2023-08-07T06:06:08;8.03;;;4.90;;
2944;SDS011;1482;51.398;7.128;2023-08-07T06:08:34;7.67;;;4.40;;
2944;SDS011;1482;51.398;7.128;2023-08-07T06:10:59;8.87;;;4.53;;
2944;SDS011;1482;51.398;7.128;2023-08-07T06:13:28;5.60;;;4.90;;
2944;SDS011;1482;51.398;7.128;2023-08-07T06:15:54;11.60;;;4.10;;
2944;SDS011;1482;51.398;7.128;2023-08-07T06:18:19;7.63;;;3.10;;
2944;SDS011;1482;51.398;7.128;2023-08-07T06:20:45;6.27;;;3.13;;
2944;SDS011;1482;51.398;7.128;2023-08-07T06:23:11;3.80;;;3.40;;
2944;SDS011;1482;51.398;7.128;2023-08-07T06:25:37;8.03;;;4.63;;
2944;SDS011;1482;51.398;7.128;2023-08-07T06:28:03;5.73;;;3.03;;
2944;SDS011;1482;51.398;7.128;2023-08-07T06:30:28;8.47;;;4.77;;
2944;SDS011;1482;51.398;7.128;2023-08-07T06:32:56;9.27;;;4.23;;
2944;SDS011;1482;51.398;7.128;2023-08-07T06:35:21;5.43;;;3.80;;
2944;SDS011;1482;51.398;7.128;2023-08-07T06:37:47;4.53;;;3.77;;
2944;SDS011;1482;51.398;7.128;2023-08-07T06:40:13;6.53;;;4.03;;
2944;SDS011;1482;51.398;7.128;2023-08-07T06:42:39;8.87;;;4.43;;
2944;SDS011;1482;51.398;7.128;2023-08-07T06:45:05;3.63;;;3.33;;
2944;SDS011;1482;51.398;7.128;2023-08-07T06:47:31;3.73;;;3.40;;
2944;SDS011;1482;51.398;7.128;2023-08-07T06:49:57;4.20;;;3.23;;
2944;SDS011;1482;51.398;7.128;2023-08-07T06:52:22;4.43;;;3.87;;
2944;SDS011;1482;51.398;7.128;2023-08-07T06:54:48;8.33;;;5.03;;
2944;SDS011;1482;51.398;7.128;2023-08-07T06:57:13;3.93;;;3.53;;
2944;SDS011;1482;51.398;7.128;2023-08-07T06:59:39;4.10;;;3.80;;
2944;SDS011;1482;51.398;7.128;2023-08-07T07:02:05;5.83;;;4.17;;
2944;SDS011;1482;51.398;7.128;2023-08-07T07:04:30;6.47;;;3.23;;
2944;SDS011;1482;51.398;7.128;2023-08-07T07:06:56;6.73;;;3.40;;
2944;SDS011;1482;51.398;7.128;2023-08-07T07:09:22;6.63;;;3.67;;
2944;SDS011;1482;51.398;7.128;2023-08-07T07:11:47;6.90;;;4.10;;
2944;SDS011;1482;51.398;7.128;2023-08-07T07:14:13;7.70;;;3.47;;
2944;SDS011;1482;51.398;7.128;2023-08-07T07:16:38;5.70;;;4.57;;
2944;SDS011;1482;51.398;7.128;2023-08-07T07:19:04;6.63;;;3.47;;
2944;SDS011;1482;51.398;7.128;2023-08-07T07:21:33;4.90;;;4.00;;
2944;SDS011;1482;51.398;7.128;2023-08-07T07:23:59;4.60;;;4.00;;
2944;SDS011;1482;51.398;7.128;2023-08-07T07:26:24;8.03;;;4.80;;
2944;SDS011;1482;51.398;7.128;2023-08-07T07:28:50;7.67;;;4.30;;
2944;SDS011;1482;51.398;7.128;2023-08-07T07:31:16;4.67;;;3.00;;
2944;SDS011;1482;51.398;7.128;2023-08-07T07:33:41;8.63;;;4.37;;
2944;SDS011;1482;51.398;7.128;2023-08-07T07:36:07;6.43;;;3.17;;
2944;SDS011;1482;51.398;7.128;2023-08-07T07:38:38;7.40;;;4.57;;
2944;SDS011;1482;51.398;7.128;2023-08-07T07:41:03;5.27;;;3.43;;
2944;SDS011;1482;51.398;7.128;2023-08-07T07:43:29;8.37;;;3.67;;
2944;SDS011;1482;51.398;7.128;2023-08-07T07:45:54;7.40;;;3.70;;
2944;SDS011;1482;51.398;7.128;2023-08-07T07:48:20;9.07;;;3.47;;
2944;SDS011;1482;51.398;7.128;2023-08-07T07:50:45;3.30;;;3.10;;
2944;SDS011;1482;51.398;7.128;2023-08-07T07:53:11;15.13;;;4.90;;
2944;SDS011;1482;51.398;7.128;2023-08-07T07:55:36;7.30;;;3.90;;
2944;SDS011;1482;51.398;7.128;2023-08-07T07:58:03;7.30;;;5.00;;
2944;SDS011;1482;51.398;7.128;2023-08-07T08:00:28;7.93;;;5.97;;
2944;SDS011;1482;51.398;7.128;2023-08-07T08:02:54;10.03;;;5.63;;
2944;SDS011;1482;51.398;7.128;2023-08-07T08:05:19;4.77;;;3.90;;
2944;SDS011;1482;51.398;7.128;2023-08-07T08:07:45;4.23;;;3.80;;
2944;SDS011;1482;51.398;7.128;2023-08-07T08:10:11;7.17;;;3.77;;
2944;SDS011;1482;51.398;7.128;2023-08-07T08:12:38;4.43;;;4.13;;
2944;SDS011;1482;51.398;7.128;2023-08-07T08:15:03;4.87;;;3.53;;
2944;SDS011;1482;51.398;7.128;2023-08-07T08:17:29;3.33;;;3.03;;
2944;SDS011;1482;51.398;7.128;2023-08-07T08:19:55;10.83;;;4.30;;
2944;SDS011;1482;51.398;7.128;2023-08-07T08:22:21;5.03;;;4.40;;
2944;SDS011;1482;51.398;7.128;2023-08-07T08:24:46;8.93;;;4.90;;
2944;SDS011;1482;51.398;7.128;2023-08-07T08:27:15;8.60;;;4.87;;
2944;SDS011;1482;51.398;7.128;2023-08-07T08:29:42;8.87;;;5.67;;
2944;SDS011;1482;51.398;7.128;2023-08-07T08:32:08;6.33;;;4.80;;
2944;SDS011;1482;51.398;7.128;2023-08-07T08:34:34;5.30;;;4.70;;
2944;SDS011;1482;51.398;7.128;2023-08-07T08:36:59;8.90;;;5.17;;
2944;SDS011;1482;51.398;7.128;2023-08-07T08:39:25;9.60;;;5.20;;
2944;SDS011;1482;51.398;7.128;2023-08-07T08:41:50;7.53;;;5.13;;
2944;SDS011;1482;51.398;7.128;2023-08-07T08:44:17;9.47;;;5.20;;
2944;SDS011;1482;51.398;7.128;2023-08-07T08:46:45;6.27;;;4.60;;
2944;SDS011;1482;51.398;7.128;2023-08-07T08:49:11;8.60;;;5.53;;
2944;SDS011;1482;51.398;7.128;2023-08-07T08:51:45;8.50;;;4.73;;
2944;SDS011;1482;51.398;7.128;2023-08-07T08:54:11;8.77;;;5.23;;
2944;SDS011;1482;51.398;7.128;2023-08-07T08:56:38;7.93;;;4.83;;
2944;SDS011;1482;51.398;7.128;2023-08-07T08:59:04;13.43;;;6.20;;
2944;SDS011;1482;51.398;7.128;2023-08-07T09:01:29;7.47;;;5.30;;
2944;SDS011;1482;51.398;7.128;2023-08-07T09:03:56;15.10;;;7.20;;
2944;SDS011;1482;51.398;7.128;2023-08-07T09:06:23;6.10;;;5.27;;
2944;SDS011;1482;51.398;7.128;2023-08-07T09:08:49;19.37;;;5.70;;
2944;SDS011;1482;51.398;7.128;2023-08-07T09:11:15;12.23;;;4.80;;
2944;SDS011;1482;51.398;7.128;2023-08-07T09:13:43;8.97;;;4.80;;
2944;SDS011;1482;51.398;7.128;2023-08-07T09:16:10;9.53;;;4.47;;
2944;SDS011;1482;51.398;7.128;2023-08-07T09:18:37;9.60;;;4.57;;
2944;SDS011;1482;51.398;7.128;2023-08-07T09:21:03;6.57;;;4.00;;
2944;SDS011;1482;51.398;7.128;2023-08-07T09:23:28;8.33;;;4.17;;
2944;SDS011;1482;51.398;7.128;2023-08-07T09:26:00;6.10;;;3.60;;
2944;SDS011;1482;51.398;7.128;2023-08-07T09:28:31;8.63;;;4.47;;
2944;SDS011;1482;51.398;7.128;2023-08-07T09:30:58;6.50;;;3.83;;
2944;SDS011;1482;51.398;7.128;2023-08-07T09:33:24;9.40;;;4.17;;
2944;SDS011;1482;51.398;7.128;2023-08-07T09:35:51;6.30;;;3.53;;
2944;SDS011;1482;51.398;7.128;2023-08-07T09:38:17;6.77;;;3.90;;
2944;SDS011;1482;51.398;7.128;2023-08-07T09:40:43;4.60;;;3.37;;
2944;SDS011;1482;51.398;7.128;2023-08-07T09:43:08;7.63;;;3.80;;
2944;SDS011;1482;51.398;7.128;2023-08-07T09:45:35;8.33;;;3.40;;
2944;SDS011;1482;51.398;7.128;2023-08-07T09:48:05;12.83;;;2.97;;
2944;SDS011;1482;51.398;7.128;2023-08-07T09:50:31;10.50;;;3.40;;
2944;SDS011;1482;51.398;7.128;2023-08-07T09:52:57;7.87;;;3.33;;
2944;SDS011;1482;51.398;7.128;2023-08-07T09:55:24;7.67;;;4.40;;
2944;SDS011;1482;51.398;7.128;2023-08-07T09:57:50;8.30;;;2.87;;
2944;SDS011;1482;51.398;7.128;2023-08-07T10:00:16;3.77;;;2.33;;
2944;SDS011;1482;51.398;7.128;2023-08-07T10:02:45;6.63;;;2.60;;
2944;SDS011;1482;51.398;7.128;2023-08-07T10:05:12;5.70;;;3.57;;
2944;SDS011;1482;51.398;7.128;2023-08-07T10:07:38;4.90;;;3.30;;
2944;SDS011;1482;51.398;7.128;2023-08-07T10:10:04;8.80;;;3.63;;
2944;SDS011;1482;51.398;7.128;2023-08-07T10:12:31;6.57;;;3.10;;
2944;SDS011;1482;51.398;7.128;2023-08-07T10:14:58;10.80;;;3.07;;
2944;SDS011;1482;51.398;7.128;2023-08-07T10:17:25;6.30;;;3.13;;
2944;SDS011;1482;51.398;7.128;2023-08-07T10:19:51;7.07;;;3.90;;
2944;SDS011;1482;51.398;7.128;2023-08-07T10:22:17;4.63;;;3.20;;
2944;SDS011;1482;51.398;7.128;2023-08-07T10:24:44;12.73;;;4.13;;
2944;SDS011;1482;51.398;7.128;2023-08-07T10:27:13;8.40;;;3.60;;
2944;SDS011;1482;51.398;7.128;2023-08-07T10:29:41;6.13;;;3.40;;
2944;SDS011;1482;51.398;7.128;2023-08-07T10:32:08;10.60;;;3.67;;
2944;SDS011;1482;51.398;7.128;2023-08-07T10:34:36;15.03;;;4.33;;
2944;SDS011;1482;51.398;7.128;2023-08-07T10:37:02;5.53;;;3.40;;
2944;SDS011;1482;51.398;7.128;2023-08-07T10:39:31;8.57;;;3.87;;
2944;SDS011;1482;51.398;7.128;2023-08-07T10:41:57;6.83;;;3.60;;
2944;SDS011;1482;51.398;7.128;2023-08-07T10:44:27;7.33;;;3.20;;
2944;SDS011;1482;51.398;7.128;2023-08-07T10:46:56;7.23;;;3.57;;
2944;SDS011;1482;51.398;7.128;2023-08-07T10:49:41;9.13;;;3.00;;
2944;SDS011;1482;51.398;7.128;2023-08-07T10:52:13;6.40;;;3.40;;
2944;SDS011;1482;51.398;7.128;2023-08-07T10:54:46;16.73;;;4.67;;
2944;SDS011;1482;51.398;7.128;2023-08-07T10:57:13;10.40;;;3.30;;
2944;SDS011;1482;51.398;7.128;2023-08-07T10:59:49;10.03;;;3.70;;
2944;SDS011;1482;51.398;7.128;2023-08-07T11:02:25;6.57;;;3.77;;
2944;SDS011;1482;51.398;7.128;2023-08-07T11:04:54;12.13;;;4.80;;
2944;SDS011;1482;51.398;7.128;2023-08-07T11:07:23;13.83;;;3.97;;
2944;SDS011;1482;51.398;7.128;2023-08-07T11:09:53;8.80;;;3.90;;
2944;SDS011;1482;51.398;7.128;2023-08-07T11:12:19;5.43;;;3.20;;
2944;SDS011;1482;51.398;7.128;2023-08-07T11:14:45;8.43;;;4.27;;
2944;SDS011;1482;51.398;7.128;2023-08-07T11:17:11;9.40;;;3.87;;
2944;SDS011;1482;51.398;7.128;2023-08-07T11:19:37;5.33;;;3.60;;
2944;SDS011;1482;51.398;7.128;2023-08-07T11:22:03;7.47;;;4.50;;
2944;SDS011;1482;51.398;7.128;2023-08-07T11:24:30;16.73;;;5.20;;
2944;SDS011;1482;51.398;7.128;2023-08-07T11:26:56;11.10;;;4.57;;
2944;SDS011;1482;51.398;7.128;2023-08-07T11:29:22;7.40;;;4.17;;
2944;SDS011;1482;51.398;7.128;2023-08-07T11:31:50;9.57;;;4.90;;
2944;SDS011;1482;51.398;7.128;2023-08-07T11:34:19;11.03;;;4.30;;
2944;SDS011;1482;51.398;7.128;2023-08-07T11:36:45;10.93;;;4.00;;
2944;SDS011;1482;51.398;7.128;2023-08-07T11:39:11;8.47;;;4.20;;
2944;SDS011;1482;51.398;7.128;2023-08-07T11:41:37;10.13;;;3.90;;
2944;SDS011;1482;51.398;7.128;2023-08-07T11:44:03;8.73;;;4.70;;
2944;SDS011;1482;51.398;7.128;2023-08-07T11:46:29;9.13;;;3.97;;
2944;SDS011;1482;51.398;7.128;2023-08-07T11:48:55;9.60;;;5.50;;
2944;SDS011;1482;51.398;7.128;2023-08-07T11:51:21;7.97;;;4.43;;
2944;SDS011;1482;51.398;7.128;2023-08-07T11:53:48;13.40;;;4.90;;
2944;SDS011;1482;51.398;7.128;2023-08-07T11:56:14;10.70;;;4.23;;
2944;SDS011;1482;51.398;7.128;2023-08-07T11:58:40;11.10;;;5.37;;
2944;SDS011;1482;51.398;7.128;2023-08-07T12:01:26;10.90;;;3.97;;
2944;SDS011;1482;51.398;7.128;2023-08-07T12:03:52;7.17;;;3.83;;
2944;SDS011;1482;51.398;7.128;2023-08-07T12:06:19;6.30;;;3.57;;
2944;SDS011;1482;51.398;7.128;2023-08-07T12:08:48;5.77;;;3.80;;
2944;SDS011;1482;51.398;7.128;2023-08-07T12:11:16;7.83;;;4.00;;
2944;SDS011;1482;51.398;7.128;2023-08-07T12:13:42;9.10;;;3.43;;
2944;SDS011;1482;51.398;7.128;2023-08-07T12:16:10;7.70;;;3.30;;
2944;SDS011;1482;51.398;7.128;2023-08-07T12:18:50;5.30;;;3.70;;
2944;SDS011;1482;51.398;7.128;2023-08-07T12:21:20;4.33;;;2.93;;
2944;SDS011;1482;51.398;7.128;2023-08-07T12:23:48;6.47;;;3.90;;
2944;SDS011;1482;51.398;7.128;2023-08-07T12:26:15;10.50;;;3.90;;
2944;SDS011;1482;51.398;7.128;2023-08-07T12:28:41;5.87;;;3.40;;
2944;SDS011;1482;51.398;7.128;2023-08-07T12:31:07;10.83;;;2.80;;
2944;SDS011;1482;51.398;7.128;2023-08-07T12:33:33;8.77;;;2.83;;
2944;SDS011;1482;51.398;7.128;2023-08-07T12:35:59;10.83;;;2.80;;
2944;SDS011;1482;51.398;7.128;2023-08-07T12:38:26;6.43;;;3.00;;
2944;SDS011;1482;51.398;7.128;2023-08-07T12:40:52;4.83;;;2.63;;
2944;SDS011;1482;51.398;7.128;2023-08-07T12:43:18;4.57;;;3.13;;
2944;SDS011;1482;51.398;7.128;2023-08-07T12:45:43;9.33;;;3.80;;
2944;SDS011;1482;51.398;7.128;2023-08-07T12:48:09;7.10;;;3.50;;
2944;SDS011;1482;51.398;7.128;2023-08-07T12:50:35;9.63;;;3.30;;
2944;SDS011;1482;51.398;7.128;2023-08-07T12:53:00;8.67;;;3.20;;
2944;SDS011;1482;51.398;7.128;2023-08-07T12:55:26;5.83;;;2.97;;
2944;SDS011;1482;51.398;7.128;2023-08-07T12:57:53;6.00;;;3.20;;
2944;SDS011;1482;51.398;7.128;2023-08-07T13:00:19;5.97;;;2.80;;
2944;SDS011;1482;51.398;7.128;2023-08-07T13:02:45;13.50;;;3.00;;
2944;SDS011;1482;51.398;7.128;2023-08-07T13:05:12;11.43;;;3.40;;
2944;SDS011;1482;51.398;7.128;2023-08-07T13:07:39;7.97;;;2.40;;
2944;SDS011;1482;51.398;7.128;2023-08-07T13:10:06;5.60;;;2.10;;
2944;SDS011;1482;51.398;7.128;2023-08-07T13:12:34;7.13;;;2.43;;
2944;SDS011;1482;51.398;7.128;2023-08-07T13:15:01;6.80;;;3.47;;
2944;SDS011;1482;51.398;7.128;2023-08-07T13:17:31;6.73;;;2.97;;
2944;SDS011;1482;51.398;7.128;2023-08-07T13:19:57;5.40;;;3.10;;
2944;SDS011;1482;51.398;7.128;2023-08-07T13:22:24;9.57;;;3.00;;
2944;SDS011;1482;51.398;7.128;2023-08-07T13:24:49;7.53;;;3.17;;
2944;SDS011;1482;51.398;7.128;2023-08-07T13:27:15;12.13;;;3.33;;
2944;SDS011;1482;51.398;7.128;2023-08-07T13:29:41;6.80;;;4.17;;
2944;SDS011;1482;51.398;7.128;2023-08-07T13:32:06;6.10;;;2.10;;
2944;SDS011;1482;51.398;7.128;2023-08-07T13:34:34;7.80;;;3.60;;
2944;SDS011;1482;51.398;7.128;2023-08-07T13:37:06;5.70;;;2.47;;
2944;SDS011;1482;51.398;7.128;2023-08-07T13:39:32;6.00;;;2.50;;
2944;SDS011;1482;51.398;7.128;2023-08-07T13:41:58;10.33;;;2.83;;
2944;SDS011;1482;51.398;7.128;2023-08-07T13:44:25;12.33;;;3.07;;
2944;SDS011;1482;51.398;7.128;2023-08-07T13:46:51;4.70;;;2.80;;
2944;SDS011;1482;51.398;7.128;2023-08-07T13:49:16;5.97;;;2.53;;
2944;SDS011;1482;51.398;7.128;2023-08-07T13:51:42;8.63;;;2.50;;
2944;SDS011;1482;51.398;7.128;2023-08-07T13:54:08;6.70;;;2.97;;
2944;SDS011;1482;51.398;7.128;2023-08-07T13:56:34;7.97;;;2.77;;
2944;SDS011;1482;51.398;7.128;2023-08-07T13:59:00;6.00;;;2.90;;
2944;SDS011;1482;51.398;7.128;2023-08-07T14:01:26;5.60;;;1.93;;
2944;SDS011;1482;51.398;7.128;2023-08-07T14:03:52;4.70;;;2.00;;
2944;SDS011;1482;51.398;7.128;2023-08-07T14:06:18;6.00;;;2.47;;
2944;SDS011;1482;51.398;7.128;2023-08-07T14:08:44;3.53;;;2.43;;
2944;SDS011;1482;51.398;7.128;2023-08-07T14:11:09;2.87;;;2.67;;
2944;SDS011;1482;51.398;7.128;2023-08-07T14:13:36;7.93;;;2.63;;
2944;SDS011;1482;51.398;7.128;2023-08-07T14:16:02;4.83;;;2.10;;
2944;SDS011;1482;51.398;7.128;2023-08-07T14:18:27;5.07;;;2.37;;
2944;SDS011;1482;51.398;7.128;2023-08-07T14:20:53;3.10;;;2.20;;
2944;SDS011;1482;51.398;7.128;2023-08-07T14:23:18;4.67;;;3.13;;
2944;SDS011;1482;51.398;7.128;2023-08-07T14:25:44;7.33;;;2.80;;
2944;SDS011;1482;51.398;7.128;2023-08-07T14:28:10;6.40;;;2.50;;
2944;SDS011;1482;51.398;7.128;2023-08-07T14:30:36;7.30;;;2.83;;
2944;SDS011;1482;51.398;7.128;2023-08-07T14:33:01;6.60;;;2.10;;
2944;SDS011;1482;51.398;7.128;2023-08-07T14:35:27;5.70;;;2.97;;
2944;SDS011;1482;51.398;7.128;2023-08-07T14:37:52;10.53;;;3.60;;
2944;SDS011;1482;51.398;7.128;2023-08-07T14:40:18;8.40;;;2.83;;
2944;SDS011;1482;51.398;7.128;2023-08-07T14:42:43;3.30;;;2.10;;
2944;SDS011;1482;51.398;7.128;2023-08-07T14:45:09;2.70;;;2.50;;
2944;SDS011;1482;51.398;7.128;2023-08-07T14:47:35;8.30;;;2.53;;
2944;SDS011;1482;51.398;7.128;2023-08-07T14:50:00;5.00;;;2.33;;
2944;SDS011;1482;51.398;7.128;2023-08-07T14:52:26;6.00;;;2.90;;
2944;SDS011;1482;51.398;7.128;2023-08-07T14:54:51;3.67;;;2.20;;
2944;SDS011;1482;51.398;7.128;2023-08-07T14:57:20;6.23;;;2.50;;
2944;SDS011;1482;51.398;7.128;2023-08-07T14:59:46;3.90;;;3.00;;
2944;SDS011;1482;51.398;7.128;2023-08-07T15:02:12;5.37;;;2.20;;
2944;SDS011;1482;51.398;7.128;2023-08-07T15:04:37;4.67;;;2.43;;
2944;SDS011;1482;51.398;7.128;2023-08-07T15:07:03;3.80;;;2.97;;
2944;SDS011;1482;51.398;7.128;2023-08-07T15:09:29;6.50;;;2.03;;
2944;SDS011;1482;51.398;7.128;2023-08-07T15:11:54;4.27;;;2.30;;
2944;SDS011;1482;51.398;7.128;2023-08-07T15:14:20;3.63;;;3.20;;